sensor_id;sensor_type;location;lat;lon;timestamp;noise_LAeq;noise_LA_min;noise_LA_max;noise_LA01;noise_LA95
68279;Laerm;55108;51.790;10.960;2023-06-26T00:01:22;54.02;31.72;71.88;;
68279;Laerm;55108;51.790;10.960;2023-06-26T00:03:48;41.77;31.06;62.91;;
68279;Laerm;55108;51.790;10.960;2023-06-26T00:06:14;52.37;30.33;69.90;;
68279;Laerm;55108;51.790;10.960;2023-06-26T00:08:40;37.75;30.68;46.62;;
68279;Laerm;55108;51.790;10.960;2023-06-26T00:11:05;37.00;30.69;45.07;;
68279;Laerm;55108;51.790;10.960;2023-06-26T00:13:31;31.83;29.20;37.27;;
68279;Laerm;55108;51.790;10.960;2023-06-26T00:15:57;33.15;29.97;43.66;;
68279;Laerm;55108;51.790;10.960;2023-06-26T00:18:23;34.01;30.01;41.20;;
68279;Laerm;55108;51.790;10.960;2023-06-26T00:20:49;33.85;30.65;41.34;;
68279;Laerm;55108;51.790;10.960;2023-06-26T00:23:17;32.40;30.00;37.59;;
68279;Laerm;55108;51.790;10.960;2023-06-26T00:25:43;36.27;29.78;43.19;;
68279;Laerm;55108;51.790;10.960;2023-06-26T00:28:09;51.25;31.17;68.92;;
68279;Laerm;55108;51.790;10.960;2023-06-26T00:30:35;58.73;31.41;76.34;;
68279;Laerm;55108;51.790;10.960;2023-06-26T00:33:01;39.20;29.67;56.07;;
68279;Laerm;55108;51.790;10.960;2023-06-26T00:35:26;32.46;30.23;37.67;;
68279;Laerm;55108;51.790;10.960;2023-06-26T00:37:52;35.75;30.02;41.13;;
68279;Laerm;55108;51.790;10.960;2023-06-26T00:40:18;33.15;30.36;41.64;;
68279;Laerm;55108;51.790;10.960;2023-06-26T00:42:44;59.90;31.70;76.96;;
68279;Laerm;55108;51.790;10.960;2023-06-26T00:45:09;34.24;30.71;44.95;;
68279;Laerm;55108;51.790;10.960;2023-06-26T00:47:35;34.01;29.74;41.61;;
68279;Laerm;55108;51.790;10.960;2023-06-26T00:50:01;39.12;30.44;53.96;;
68279;Laerm;55108;51.790;10.960;2023-06-26T00:52:27;53.02;30.62;71.41;;
68279;Laerm;55108;51.790;10.960;2023-06-26T00:54:53;54.65;29.86;71.99;;
68279;Laerm;55108;51.790;10.960;2023-06-26T00:57:19;56.91;30.50;75.62;;
68279;Laerm;55108;51.790;10.960;2023-06-26T00:59:45;33.98;30.31;41.49;;
68279;Laerm;55108;51.790;10.960;2023-06-26T01:02:11;32.61;29.63;40.32;;
68279;Laerm;55108;51.790;10.960;2023-06-26T01:04:36;63.66;30.02;79.52;;
68279;Laerm;55108;51.790;10.960;2023-06-26T01:07:02;55.16;31.92;72.72;;
68279;Laerm;55108;51.790;10.960;2023-06-26T01:09:29;35.07;31.45;43.64;;
68279;Laerm;55108;51.790;10.960;2023-06-26T01:11:55;52.22;30.77;68.42;;
68279;Laerm;55108;51.790;10.960;2023-06-26T01:14:21;36.91;33.06;50.32;;
68279;Laerm;55108;51.790;10.960;2023-06-26T01:16:47;35.89;32.50;43.53;;
68279;Laerm;55108;51.790;10.960;2023-06-26T01:19:23;43.07;31.19;62.93;;
68279;Laerm;55108;51.790;10.960;2023-06-26T01:24:35;34.06;30.33;49.16;;
68279;Laerm;55108;51.790;10.960;2023-06-26T01:27:04;60.74;30.85;77.16;;
68279;Laerm;55108;51.790;10.960;2023-06-26T01:29:30;38.91;30.40;55.61;;
68279;Laerm;55108;51.790;10.960;2023-06-26T01:31:57;59.95;30.24;77.27;;
68279;Laerm;55108;51.790;10.960;2023-06-26T01:34:23;56.23;30.29;74.39;;
68279;Laerm;55108;51.790;10.960;2023-06-26T01:36:48;36.84;30.56;52.80;;
68279;Laerm;55108;51.790;10.960;2023-06-26T01:39:15;55.04;29.54;72.02;;
68279;Laerm;55108;51.790;10.960;2023-06-26T01:41:41;59.40;30.55;77.38;;
68279;Laerm;55108;51.790;10.960;2023-06-26T01:51:54;50.81;30.93;66.52;;
68279;Laerm;55108;51.790;10.960;2023-06-26T01:54:21;43.66;31.41;57.63;;
68279;Laerm;55108;51.790;10.960;2023-06-26T01:56:49;51.58;33.30;67.08;;
68279;Laerm;55108;51.790;10.960;2023-06-26T01:59:15;47.92;31.94;61.49;;
68279;Laerm;55108;51.790;10.960;2023-06-26T02:01:43;46.39;31.35;59.05;;
68279;Laerm;55108;51.790;10.960;2023-06-26T02:04:09;45.62;32.25;57.12;;
68279;Laerm;55108;51.790;10.960;2023-06-26T02:06:35;42.72;32.26;55.94;;
68279;Laerm;55108;51.790;10.960;2023-06-26T02:09:00;62.78;31.76;80.99;;
68279;Laerm;55108;51.790;10.960;2023-06-26T02:11:27;59.15;33.53;77.24;;
68279;Laerm;55108;51.790;10.960;2023-06-26T02:13:52;64.49;34.22;83.96;;
68279;Laerm;55108;51.790;10.960;2023-06-26T02:16:18;43.20;35.02;54.43;;
68279;Laerm;55108;51.790;10.960;2023-06-26T02:18:44;42.55;33.45;53.21;;
68279;Laerm;55108;51.790;10.960;2023-06-26T02:21:10;51.66;34.11;69.96;;
68279;Laerm;55108;51.790;10.960;2023-06-26T02:23:35;51.94;31.91;71.16;;
68279;Laerm;55108;51.790;10.960;2023-06-26T02:26:02;58.08;34.29;72.31;;
68279;Laerm;55108;51.790;10.960;2023-06-26T02:28:27;62.98;35.00;78.25;;
68279;Laerm;55108;51.790;10.960;2023-06-26T02:30:53;60.73;34.58;73.24;;
68279;Laerm;55108;51.790;10.960;2023-06-26T02:33:19;42.89;32.56;55.13;;
68279;Laerm;55108;51.790;10.960;2023-06-26T02:35:45;57.98;33.42;74.52;;
68279;Laerm;55108;51.790;10.960;2023-06-26T02:38:10;58.56;34.35;75.53;;
68279;Laerm;55108;51.790;10.960;2023-06-26T02:40:38;59.16;34.05;73.71;;
68279;Laerm;55108;51.790;10.960;2023-06-26T02:43:03;53.73;32.95;70.01;;
68279;Laerm;55108;51.790;10.960;2023-06-26T02:45:29;65.09;39.30;81.63;;
68279;Laerm;55108;51.790;10.960;2023-06-26T02:47:55;63.33;33.03;79.98;;
68279;Laerm;55108;51.790;10.960;2023-06-26T02:50:20;63.04;32.54;79.95;;
68279;Laerm;55108;51.790;10.960;2023-06-26T02:52:46;57.57;31.69;73.22;;
68279;Laerm;55108;51.790;10.960;2023-06-26T02:55:15;59.79;32.24;79.17;;
68279;Laerm;55108;51.790;10.960;2023-06-26T02:57:41;53.49;31.40;70.56;;
68279;Laerm;55108;51.790;10.960;2023-06-26T03:00:07;60.29;33.91;77.69;;
68279;Laerm;55108;51.790;10.960;2023-06-26T03:02:33;57.51;31.81;73.26;;
68279;Laerm;55108;51.790;10.960;2023-06-26T03:04:59;59.26;32.60;77.78;;
68279;Laerm;55108;51.790;10.960;2023-06-26T03:07:24;59.76;32.15;76.35;;
68279;Laerm;55108;51.790;10.960;2023-06-26T03:09:50;63.19;35.56;75.19;;
68279;Laerm;55108;51.790;10.960;2023-06-26T03:12:16;56.77;34.05;73.02;;
68279;Laerm;55108;51.790;10.960;2023-06-26T03:14:41;60.79;36.09;74.26;;
68279;Laerm;55108;51.790;10.960;2023-06-26T03:17:08;66.65;41.06;83.78;;
68279;Laerm;55108;51.790;10.960;2023-06-26T03:19:33;55.85;35.05;75.30;;
68279;Laerm;55108;51.790;10.960;2023-06-26T03:21:59;65.42;40.30;77.13;;
68279;Laerm;55108;51.790;10.960;2023-06-26T03:24:25;65.61;35.33;80.86;;
68279;Laerm;55108;51.790;10.960;2023-06-26T03:26:50;64.50;38.82;77.61;;
68279;Laerm;55108;51.790;10.960;2023-06-26T03:29:16;65.01;39.89;76.37;;
68279;Laerm;55108;51.790;10.960;2023-06-26T03:31:42;57.49;36.49;69.73;;
68279;Laerm;55108;51.790;10.960;2023-06-26T03:34:08;62.02;37.99;79.11;;
68279;Laerm;55108;51.790;10.960;2023-06-26T03:36:33;65.54;36.98;78.80;;
68279;Laerm;55108;51.790;10.960;2023-06-26T03:39:00;60.32;37.39;73.76;;
68279;Laerm;55108;51.790;10.960;2023-06-26T03:41:26;67.72;43.64;80.89;;
68279;Laerm;55108;51.790;10.960;2023-06-26T03:43:52;65.49;40.24;76.33;;
68279;Laerm;55108;51.790;10.960;2023-06-26T03:46:18;65.39;39.35;79.88;;
68279;Laerm;55108;51.790;10.960;2023-06-26T03:48:43;66.37;41.49;80.98;;
68279;Laerm;55108;51.790;10.960;2023-06-26T03:51:09;66.35;41.57;78.78;;
68279;Laerm;55108;51.790;10.960;2023-06-26T03:53:35;65.81;41.61;81.51;;
68279;Laerm;55108;51.790;10.960;2023-06-26T03:56:01;67.63;46.44;79.73;;
68279;Laerm;55108;51.790;10.960;2023-06-26T03:58:26;61.60;36.77;77.13;;
68279;Laerm;55108;51.790;10.960;2023-06-26T04:00:52;66.66;38.51;78.20;;
68279;Laerm;55108;51.790;10.960;2023-06-26T04:03:18;67.38;40.60;80.44;;
68279;Laerm;55108;51.790;10.960;2023-06-26T04:05:44;64.47;39.22;76.82;;
68279;Laerm;55108;51.790;10.960;2023-06-26T04:08:10;63.78;39.65;75.97;;
68279;Laerm;55108;51.790;10.960;2023-06-26T04:10:36;64.50;38.42;84.42;;
68279;Laerm;55108;51.790;10.960;2023-06-26T04:13:01;63.84;40.12;75.62;;
68279;Laerm;55108;51.790;10.960;2023-06-26T04:15:27;65.71;40.60;77.50;;
68279;Laerm;55108;51.790;10.960;2023-06-26T04:17:53;65.50;41.63;77.08;;
68279;Laerm;55108;51.790;10.960;2023-06-26T04:20:19;65.73;40.66;76.00;;
68279;Laerm;55108;51.790;10.960;2023-06-26T04:22:44;65.05;38.68;76.38;;
68279;Laerm;55108;51.790;10.960;2023-06-26T04:25:10;68.21;45.43;82.56;;
68279;Laerm;55108;51.790;10.960;2023-06-26T04:27:39;68.28;42.26;81.49;;
68279;Laerm;55108;51.790;10.960;2023-06-26T04:30:05;67.47;40.73;83.76;;
68279;Laerm;55108;51.790;10.960;2023-06-26T04:32:31;66.91;46.05;76.81;;
68279;Laerm;55108;51.790;10.960;2023-06-26T04:34:56;67.12;45.72;80.94;;
68279;Laerm;55108;51.790;10.960;2023-06-26T04:37:22;68.95;46.52;81.56;;
68279;Laerm;55108;51.790;10.960;2023-06-26T04:39:49;65.89;44.11;77.85;;
68279;Laerm;55108;51.790;10.960;2023-06-26T04:42:15;64.58;42.23;73.99;;
68279;Laerm;55108;51.790;10.960;2023-06-26T04:44:41;64.04;40.51;74.62;;
68279;Laerm;55108;51.790;10.960;2023-06-26T04:47:07;65.06;40.31;79.32;;
68279;Laerm;55108;51.790;10.960;2023-06-26T04:49:33;67.96;50.66;79.85;;
68279;Laerm;55108;51.790;10.960;2023-06-26T04:51:59;65.08;42.32;77.63;;
68279;Laerm;55108;51.790;10.960;2023-06-26T04:54:28;67.76;46.08;80.44;;
68279;Laerm;55108;51.790;10.960;2023-06-26T04:56:53;63.38;42.17;75.17;;
68279;Laerm;55108;51.790;10.960;2023-06-26T04:59:19;66.40;43.63;74.35;;
68279;Laerm;55108;51.790;10.960;2023-06-26T05:01:45;66.87;42.74;77.74;;
68279;Laerm;55108;51.790;10.960;2023-06-26T05:04:13;64.80;43.76;75.67;;
68279;Laerm;55108;51.790;10.960;2023-06-26T05:06:39;67.27;40.86;78.98;;
68279;Laerm;55108;51.790;10.960;2023-06-26T05:09:04;66.21;43.75;75.87;;
68279;Laerm;55108;51.790;10.960;2023-06-26T05:11:30;65.42;43.74;76.20;;
68279;Laerm;55108;51.790;10.960;2023-06-26T05:13:56;65.06;43.66;73.57;;
68279;Laerm;55108;51.790;10.960;2023-06-26T05:16:22;68.25;40.00;85.78;;
68279;Laerm;55108;51.790;10.960;2023-06-26T05:18:47;67.74;43.93;77.94;;
68279;Laerm;55108;51.790;10.960;2023-06-26T05:21:13;66.82;45.02;82.56;;
68279;Laerm;55108;51.790;10.960;2023-06-26T05:23:40;66.94;43.32;77.20;;
68279;Laerm;55108;51.790;10.960;2023-06-26T05:26:07;66.15;49.80;76.92;;
68279;Laerm;55108;51.790;10.960;2023-06-26T05:28:32;65.55;45.23;77.58;;
68279;Laerm;55108;51.790;10.960;2023-06-26T05:31:01;67.97;44.59;80.07;;
68279;Laerm;55108;51.790;10.960;2023-06-26T05:33:28;68.71;41.51;81.20;;
68279;Laerm;55108;51.790;10.960;2023-06-26T05:35:54;66.83;46.18;76.84;;
68279;Laerm;55108;51.790;10.960;2023-06-26T05:38:20;67.42;46.73;76.77;;
68279;Laerm;55108;51.790;10.960;2023-06-26T05:40:46;68.89;44.22;78.78;;
68279;Laerm;55108;51.790;10.960;2023-06-26T05:43:12;64.71;44.52;75.45;;
68279;Laerm;55108;51.790;10.960;2023-06-26T05:45:38;66.80;45.39;77.16;;
68279;Laerm;55108;51.790;10.960;2023-06-26T05:48:04;66.19;44.68;74.21;;
68279;Laerm;55108;51.790;10.960;2023-06-26T05:50:29;67.08;48.08;79.66;;
68279;Laerm;55108;51.790;10.960;2023-06-26T05:52:55;66.08;45.46;79.29;;
68279;Laerm;55108;51.790;10.960;2023-06-26T05:55:22;66.89;46.79;79.73;;
68279;Laerm;55108;51.790;10.960;2023-06-26T05:57:48;67.75;46.18;83.79;;
68279;Laerm;55108;51.790;10.960;2023-06-26T06:00:15;66.31;45.17;77.97;;
68279;Laerm;55108;51.790;10.960;2023-06-26T06:02:41;67.67;45.15;77.82;;
68279;Laerm;55108;51.790;10.960;2023-06-26T06:05:07;67.40;44.59;75.34;;
68279;Laerm;55108;51.790;10.960;2023-06-26T06:07:33;64.29;44.79;74.34;;
68279;Laerm;55108;51.790;10.960;2023-06-26T06:10:00;67.87;49.69;79.19;;
68279;Laerm;55108;51.790;10.960;2023-06-26T06:12:26;66.62;48.33;77.37;;
68279;Laerm;55108;51.790;10.960;2023-06-26T06:14:52;66.77;46.88;75.20;;
68279;Laerm;55108;51.790;10.960;2023-06-26T06:17:18;64.79;45.07;76.85;;
68279;Laerm;55108;51.790;10.960;2023-06-26T06:19:44;68.33;45.00;82.08;;
68279;Laerm;55108;51.790;10.960;2023-06-26T06:22:10;68.56;45.09;81.45;;
68279;Laerm;55108;51.790;10.960;2023-06-26T06:24:36;66.20;49.48;80.20;;
68279;Laerm;55108;51.790;10.960;2023-06-26T06:27:02;68.46;49.17;80.97;;
68279;Laerm;55108;51.790;10.960;2023-06-26T06:29:27;67.47;51.05;76.20;;
68279;Laerm;55108;51.790;10.960;2023-06-26T06:31:53;67.83;48.52;86.62;;
68279;Laerm;55108;51.790;10.960;2023-06-26T06:34:19;69.81;49.53;86.91;;
68279;Laerm;55108;51.790;10.960;2023-06-26T06:36:45;68.42;45.63;82.97;;
68279;Laerm;55108;51.790;10.960;2023-06-26T06:39:10;67.07;43.57;77.05;;
68279;Laerm;55108;51.790;10.960;2023-06-26T06:41:36;67.17;42.27;80.82;;
68279;Laerm;55108;51.790;10.960;2023-06-26T06:44:02;67.06;46.18;82.84;;
68279;Laerm;55108;51.790;10.960;2023-06-26T06:46:27;66.86;47.10;79.86;;
68279;Laerm;55108;51.790;10.960;2023-06-26T06:48:53;65.74;48.99;74.53;;
68279;Laerm;55108;51.790;10.960;2023-06-26T06:51:19;66.06;48.73;76.89;;
68279;Laerm;55108;51.790;10.960;2023-06-26T06:53:45;67.43;51.86;77.37;;
68279;Laerm;55108;51.790;10.960;2023-06-26T06:56:10;66.66;46.39;83.30;;
68279;Laerm;55108;51.790;10.960;2023-06-26T06:58:36;63.31;42.49;77.01;;
68279;Laerm;55108;51.790;10.960;2023-06-26T07:01:02;65.76;44.50;80.82;;
68279;Laerm;55108;51.790;10.960;2023-06-26T07:03:29;68.62;43.33;79.64;;
68279;Laerm;55108;51.790;10.960;2023-06-26T07:05:55;65.48;40.30;79.97;;
68279;Laerm;55108;51.790;10.960;2023-06-26T07:08:21;67.95;47.33;81.25;;
68279;Laerm;55108;51.790;10.960;2023-06-26T07:10:46;67.01;42.05;82.10;;
68279;Laerm;55108;51.790;10.960;2023-06-26T07:13:12;67.39;43.94;80.09;;
68279;Laerm;55108;51.790;10.960;2023-06-26T07:15:38;66.27;44.33;77.92;;
68279;Laerm;55108;51.790;10.960;2023-06-26T07:18:04;66.19;41.47;77.26;;
68279;Laerm;55108;51.790;10.960;2023-06-26T07:20:30;66.65;44.76;78.46;;
68279;Laerm;55108;51.790;10.960;2023-06-26T07:22:55;67.04;42.77;77.67;;
68279;Laerm;55108;51.790;10.960;2023-06-26T07:25:21;68.28;43.30;80.39;;
68279;Laerm;55108;51.790;10.960;2023-06-26T07:27:47;67.90;45.02;78.39;;
68279;Laerm;55108;51.790;10.960;2023-06-26T07:30:12;67.43;48.63;79.01;;
68279;Laerm;55108;51.790;10.960;2023-06-26T07:32:38;63.91;43.68;74.34;;
68279;Laerm;55108;51.790;10.960;2023-06-26T07:35:05;65.18;45.10;77.02;;
68279;Laerm;55108;51.790;10.960;2023-06-26T07:37:31;66.40;42.05;79.51;;
68279;Laerm;55108;51.790;10.960;2023-06-26T07:39:57;66.76;44.65;75.45;;
68279;Laerm;55108;51.790;10.960;2023-06-26T07:42:23;68.39;47.38;80.49;;
68279;Laerm;55108;51.790;10.960;2023-06-26T07:44:48;67.02;46.37;76.71;;
68279;Laerm;55108;51.790;10.960;2023-06-26T07:47:14;67.03;45.93;77.90;;
68279;Laerm;55108;51.790;10.960;2023-06-26T07:49:40;64.82;47.54;75.45;;
68279;Laerm;55108;51.790;10.960;2023-06-26T07:52:06;67.03;44.38;81.86;;
68279;Laerm;55108;51.790;10.960;2023-06-26T07:54:31;65.15;46.58;72.99;;
68279;Laerm;55108;51.790;10.960;2023-06-26T07:57:01;66.77;44.92;79.48;;
68279;Laerm;55108;51.790;10.960;2023-06-26T07:59:27;67.98;45.79;80.74;;
68279;Laerm;55108;51.790;10.960;2023-06-26T08:01:54;68.42;45.96;82.18;;
68279;Laerm;55108;51.790;10.960;2023-06-26T08:04:20;68.82;51.76;80.86;;
68279;Laerm;55108;51.790;10.960;2023-06-26T08:06:49;65.58;43.70;78.68;;
68279;Laerm;55108;51.790;10.960;2023-06-26T08:09:16;67.46;44.48;76.97;;
68279;Laerm;55108;51.790;10.960;2023-06-26T08:11:42;65.46;43.87;78.42;;
68279;Laerm;55108;51.790;10.960;2023-06-26T08:14:07;67.03;45.30;79.92;;
68279;Laerm;55108;51.790;10.960;2023-06-26T08:16:33;66.75;42.43;80.34;;
68279;Laerm;55108;51.790;10.960;2023-06-26T08:18:59;66.45;43.96;76.84;;
68279;Laerm;55108;51.790;10.960;2023-06-26T08:21:26;66.57;44.48;80.02;;
68279;Laerm;55108;51.790;10.960;2023-06-26T08:23:51;66.01;44.11;80.11;;
68279;Laerm;55108;51.790;10.960;2023-06-26T08:26:17;66.62;48.39;79.56;;
68279;Laerm;55108;51.790;10.960;2023-06-26T08:28:43;66.07;42.79;76.36;;
68279;Laerm;55108;51.790;10.960;2023-06-26T08:31:09;66.98;47.06;77.70;;
68279;Laerm;55108;51.790;10.960;2023-06-26T08:33:34;66.23;40.82;78.50;;
68279;Laerm;55108;51.790;10.960;2023-06-26T08:36:00;66.59;51.99;74.96;;
68279;Laerm;55108;51.790;10.960;2023-06-26T08:38:26;66.42;40.53;74.62;;
68279;Laerm;55108;51.790;10.960;2023-06-26T08:40:52;68.13;54.70;80.56;;
68279;Laerm;55108;51.790;10.960;2023-06-26T08:43:18;64.56;44.28;73.05;;
68279;Laerm;55108;51.790;10.960;2023-06-26T08:45:44;66.95;45.73;76.22;;
68279;Laerm;55108;51.790;10.960;2023-06-26T08:48:11;67.23;44.17;84.17;;
68279;Laerm;55108;51.790;10.960;2023-06-26T08:50:38;66.14;53.66;73.75;;
68279;Laerm;55108;51.790;10.960;2023-06-26T08:53:04;65.64;42.84;79.52;;
68279;Laerm;55108;51.790;10.960;2023-06-26T08:55:35;67.35;43.56;80.27;;
68279;Laerm;55108;51.790;10.960;2023-06-26T08:58:01;67.18;48.67;79.62;;
68279;Laerm;55108;51.790;10.960;2023-06-26T09:00:27;65.65;43.50;75.09;;
68279;Laerm;55108;51.790;10.960;2023-06-26T09:02:53;66.61;40.28;77.21;;
68279;Laerm;55108;51.790;10.960;2023-06-26T09:05:18;67.59;47.74;80.68;;
68279;Laerm;55108;51.790;10.960;2023-06-26T09:07:44;67.48;47.11;84.68;;
68279;Laerm;55108;51.790;10.960;2023-06-26T09:10:10;66.34;45.31;78.97;;
68279;Laerm;55108;51.790;10.960;2023-06-26T09:12:36;65.22;45.07;79.10;;
68279;Laerm;55108;51.790;10.960;2023-06-26T09:15:03;68.47;41.43;84.50;;
68279;Laerm;55108;51.790;10.960;2023-06-26T09:17:29;65.64;42.35;78.34;;
68279;Laerm;55108;51.790;10.960;2023-06-26T09:19:55;65.10;44.80;75.06;;
68279;Laerm;55108;51.790;10.960;2023-06-26T09:22:21;66.16;42.47;80.39;;
68279;Laerm;55108;51.790;10.960;2023-06-26T09:24:48;68.34;43.52;81.15;;
68279;Laerm;55108;51.790;10.960;2023-06-26T09:27:14;63.98;42.48;74.99;;
68279;Laerm;55108;51.790;10.960;2023-06-26T09:29:39;66.91;48.17;81.77;;
68279;Laerm;55108;51.790;10.960;2023-06-26T09:32:07;66.05;46.33;74.10;;
68279;Laerm;55108;51.790;10.960;2023-06-26T09:34:33;68.29;45.01;80.96;;
68279;Laerm;55108;51.790;10.960;2023-06-26T09:36:59;67.61;45.16;80.99;;
68279;Laerm;55108;51.790;10.960;2023-06-26T09:39:29;68.70;46.78;83.56;;
68279;Laerm;55108;51.790;10.960;2023-06-26T09:41:55;70.21;47.68;82.04;;
68279;Laerm;55108;51.790;10.960;2023-06-26T09:44:22;65.08;44.97;75.52;;
68279;Laerm;55108;51.790;10.960;2023-06-26T09:46:48;65.82;46.97;75.88;;
68279;Laerm;55108;51.790;10.960;2023-06-26T09:49:14;67.94;46.50;80.36;;
68279;Laerm;55108;51.790;10.960;2023-06-26T09:51:40;64.34;44.95;77.99;;
68279;Laerm;55108;51.790;10.960;2023-06-26T09:54:06;64.70;41.83;77.17;;
68279;Laerm;55108;51.790;10.960;2023-06-26T09:56:32;67.29;41.95;80.47;;
68279;Laerm;55108;51.790;10.960;2023-06-26T09:58:59;68.20;47.85;82.79;;
68279;Laerm;55108;51.790;10.960;2023-06-26T10:01:26;68.17;46.73;82.12;;
68279;Laerm;55108;51.790;10.960;2023-06-26T10:03:52;66.89;49.84;81.51;;
68279;Laerm;55108;51.790;10.960;2023-06-26T10:06:22;68.55;47.04;83.20;;
68279;Laerm;55108;51.790;10.960;2023-06-26T10:08:50;65.82;43.59;76.46;;
68279;Laerm;55108;51.790;10.960;2023-06-26T10:11:16;61.65;42.95;71.51;;
68279;Laerm;55108;51.790;10.960;2023-06-26T10:13:45;65.84;42.60;80.85;;
68279;Laerm;55108;51.790;10.960;2023-06-26T10:16:11;68.97;45.52;81.62;;
68279;Laerm;55108;51.790;10.960;2023-06-26T10:18:38;68.00;47.28;80.92;;
68279;Laerm;55108;51.790;10.960;2023-06-26T10:21:04;66.92;44.38;81.65;;
68279;Laerm;55108;51.790;10.960;2023-06-26T10:23:30;69.87;46.54;82.46;;
68279;Laerm;55108;51.790;10.960;2023-06-26T10:25:58;66.82;46.36;82.71;;
68279;Laerm;55108;51.790;10.960;2023-06-26T10:28:24;66.67;46.27;78.30;;
68279;Laerm;55108;51.790;10.960;2023-06-26T10:30:50;67.82;43.54;86.72;;
68279;Laerm;55108;51.790;10.960;2023-06-26T10:33:18;65.33;43.52;77.93;;
68279;Laerm;55108;51.790;10.960;2023-06-26T10:35:44;65.86;44.27;84.36;;
68279;Laerm;55108;51.790;10.960;2023-06-26T10:38:10;68.41;44.50;79.41;;
68279;Laerm;55108;51.790;10.960;2023-06-26T10:40:40;67.15;46.81;78.48;;
68279;Laerm;55108;51.790;10.960;2023-06-26T10:43:07;66.79;43.31;82.85;;
68279;Laerm;55108;51.790;10.960;2023-06-26T10:45:33;66.76;40.44;75.67;;
68279;Laerm;55108;51.790;10.960;2023-06-26T10:48:00;66.40;39.91;77.29;;
68279;Laerm;55108;51.790;10.960;2023-06-26T10:50:30;68.25;46.17;83.00;;
68279;Laerm;55108;51.790;10.960;2023-06-26T10:53:12;67.19;41.82;78.71;;
68279;Laerm;55108;51.790;10.960;2023-06-26T10:58:56;68.39;43.20;80.50;;
68279;Laerm;55108;51.790;10.960;2023-06-26T11:03:39;64.66;45.36;73.55;;
68279;Laerm;55108;51.790;10.960;2023-06-26T11:06:11;67.33;41.97;80.93;;
68279;Laerm;55108;51.790;10.960;2023-06-26T11:08:43;66.10;43.82;80.64;;
68279;Laerm;55108;51.790;10.960;2023-06-26T11:11:09;66.96;41.99;80.75;;
68279;Laerm;55108;51.790;10.960;2023-06-26T11:13:35;64.92;41.12;74.83;;
68279;Laerm;55108;51.790;10.960;2023-06-26T11:16:01;63.80;41.88;77.74;;
68279;Laerm;55108;51.790;10.960;2023-06-26T11:18:27;66.57;40.67;82.70;;
68279;Laerm;55108;51.790;10.960;2023-06-26T11:20:53;67.35;43.75;81.17;;
68279;Laerm;55108;51.790;10.960;2023-06-26T11:23:20;66.64;44.65;78.72;;
68279;Laerm;55108;51.790;10.960;2023-06-26T11:25:48;64.44;43.20;75.04;;
68279;Laerm;55108;51.790;10.960;2023-06-26T11:28:14;66.81;44.72;80.49;;
68279;Laerm;55108;51.790;10.960;2023-06-26T11:30:40;68.85;46.09;82.41;;
68279;Laerm;55108;51.790;10.960;2023-06-26T11:33:09;64.25;39.75;75.78;;
68279;Laerm;55108;51.790;10.960;2023-06-26T11:35:35;67.98;45.79;82.72;;
68279;Laerm;55108;51.790;10.960;2023-06-26T11:38:03;67.51;45.81;80.09;;
68279;Laerm;55108;51.790;10.960;2023-06-26T11:40:35;65.11;45.45;75.56;;
68279;Laerm;55108;51.790;10.960;2023-06-26T11:43:02;64.83;43.63;74.98;;
68279;Laerm;55108;51.790;10.960;2023-06-26T11:45:31;65.99;44.91;75.98;;
68279;Laerm;55108;51.790;10.960;2023-06-26T11:47:58;68.24;46.84;81.96;;
68279;Laerm;55108;51.790;10.960;2023-06-26T11:50:24;65.08;41.83;77.52;;
68279;Laerm;55108;51.790;10.960;2023-06-26T11:52:53;66.63;41.12;83.17;;
68279;Laerm;55108;51.790;10.960;2023-06-26T11:55:19;69.30;47.49;83.81;;
68279;Laerm;55108;51.790;10.960;2023-06-26T11:57:49;67.82;49.25;81.23;;
68279;Laerm;55108;51.790;10.960;2023-06-26T12:00:15;68.35;47.79;77.69;;
68279;Laerm;55108;51.790;10.960;2023-06-26T12:02:42;64.00;44.27;76.10;;
68279;Laerm;55108;51.790;10.960;2023-06-26T12:05:08;65.74;44.97;74.70;;
68279;Laerm;55108;51.790;10.960;2023-06-26T12:07:33;66.24;43.92;78.72;;
68279;Laerm;55108;51.790;10.960;2023-06-26T12:10:01;68.45;46.42;81.61;;
68279;Laerm;55108;51.790;10.960;2023-06-26T12:12:27;68.40;52.33;88.07;;
68279;Laerm;55108;51.790;10.960;2023-06-26T12:14:53;65.89;48.84;75.09;;
68279;Laerm;55108;51.790;10.960;2023-06-26T12:17:22;67.63;49.58;79.86;;
68279;Laerm;55108;51.790;10.960;2023-06-26T12:19:48;65.89;44.13;76.24;;
68279;Laerm;55108;51.790;10.960;2023-06-26T12:22:14;66.76;45.56;79.45;;
68279;Laerm;55108;51.790;10.960;2023-06-26T12:24:40;65.71;45.01;75.75;;
68279;Laerm;55108;51.790;10.960;2023-06-26T12:27:08;67.72;45.59;83.44;;
68279;Laerm;55108;51.790;10.960;2023-06-26T12:29:34;64.34;47.19;76.59;;
68279;Laerm;55108;51.790;10.960;2023-06-26T12:32:00;69.65;53.42;80.71;;
68279;Laerm;55108;51.790;10.960;2023-06-26T12:34:33;66.26;48.23;75.99;;
68279;Laerm;55108;51.790;10.960;2023-06-26T12:37:03;68.03;51.42;79.79;;
68279;Laerm;55108;51.790;10.960;2023-06-26T12:39:29;66.90;50.74;75.42;;
68279;Laerm;55108;51.790;10.960;2023-06-26T12:41:57;66.60;52.15;73.54;;
68279;Laerm;55108;51.790;10.960;2023-06-26T12:44:26;68.35;49.50;79.70;;
68279;Laerm;55108;51.790;10.960;2023-06-26T12:47:01;68.44;53.17;81.03;;
68279;Laerm;55108;51.790;10.960;2023-06-26T12:49:31;67.86;49.99;77.35;;
68279;Laerm;55108;51.790;10.960;2023-06-26T12:51:58;71.85;51.25;80.87;;
68279;Laerm;55108;51.790;10.960;2023-06-26T12:54:24;73.09;50.93;83.69;;
68279;Laerm;55108;51.790;10.960;2023-06-26T12:56:50;71.54;52.13;79.06;;
68279;Laerm;55108;51.790;10.960;2023-06-26T12:59:15;70.52;51.26;81.02;;
68279;Laerm;55108;51.790;10.960;2023-06-26T13:01:41;71.27;53.21;83.01;;
68279;Laerm;55108;51.790;10.960;2023-06-26T13:04:07;69.95;48.17;79.10;;
68279;Laerm;55108;51.790;10.960;2023-06-26T13:06:33;70.36;44.77;79.60;;
68279;Laerm;55108;51.790;10.960;2023-06-26T13:08:59;67.20;41.92;77.15;;
68279;Laerm;55108;51.790;10.960;2023-06-26T13:11:25;69.14;45.45;79.91;;
68279;Laerm;55108;51.790;10.960;2023-06-26T13:13:50;70.23;46.72;83.73;;
68279;Laerm;55108;51.790;10.960;2023-06-26T13:16:16;68.29;49.72;74.96;;
68279;Laerm;55108;51.790;10.960;2023-06-26T13:18:43;69.35;44.06;81.27;;
68279;Laerm;55108;51.790;10.960;2023-06-26T13:21:09;68.36;46.31;82.50;;
68279;Laerm;55108;51.790;10.960;2023-06-26T13:23:34;68.28;46.88;79.98;;
68279;Laerm;55108;51.790;10.960;2023-06-26T13:26:00;69.07;47.14;79.83;;
68279;Laerm;55108;51.790;10.960;2023-06-26T13:28:26;67.36;43.82;78.67;;
68279;Laerm;55108;51.790;10.960;2023-06-26T13:30:52;66.81;45.21;76.40;;
68279;Laerm;55108;51.790;10.960;2023-06-26T13:33:18;65.82;43.63;78.20;;
68279;Laerm;55108;51.790;10.960;2023-06-26T13:35:43;66.35;47.26;78.18;;
68279;Laerm;55108;51.790;10.960;2023-06-26T13:38:09;65.17;44.92;75.93;;
68279;Laerm;55108;51.790;10.960;2023-06-26T13:40:35;67.68;50.58;80.06;;
68279;Laerm;55108;51.790;10.960;2023-06-26T13:43:01;67.67;46.00;79.76;;